createdAt,value
2019-04-14T00:00:05.368Z,67.88
2019-04-14T00:02:46.895Z,68.38
2019-04-14T00:05:16.897Z,68.70
2019-04-14T00:07:44.974Z,68.40
2019-04-14T00:10:13.892Z,68.11
2019-04-14T00:12:42.700Z,68.91
2019-04-14T00:15:21.118Z,67.48
2019-04-14T00:17:41.383Z,67.05
2019-04-14T00:20:09.554Z,66.65
2019-04-14T00:22:38.100Z,66.93
2019-04-14T00:25:06.471Z,67.04
2019-04-14T00:27:34.535Z,67.51
2019-04-14T00:30:03.361Z,68.01
2019-04-14T00:32:33.425Z,68.32
2019-04-14T00:35:12.518Z,68.14
2019-04-14T00:37:46.640Z,67.80
2019-04-14T00:40:19.912Z,67.64
2019-04-14T00:43:02.703Z,67.57
2019-04-14T00:45:42.597Z,67.67
2019-04-14T00:48:13.124Z,67.69
2019-04-14T00:50:38.783Z,67.35
2019-04-14T00:53:07.657Z,67.85
2019-04-14T00:55:35.749Z,67.33
2019-04-14T00:58:03.844Z,67.29
2019-04-14T01:00:32.003Z,67.42
2019-04-14T01:03:00.399Z,67.42
2019-04-14T01:05:28.671Z,67.11
2019-04-14T01:07:58.686Z,67.62
2019-04-14T01:10:27.814Z,67.42
2019-04-14T01:12:56.029Z,67.54
2019-04-14T01:15:24.649Z,67.97
2019-04-14T01:17:52.889Z,67.55
2019-04-14T01:20:21.092Z,67.66
2019-04-14T01:22:48.966Z,67.84
2019-04-14T01:25:17.129Z,67.63
2019-04-14T01:27:45.108Z,67.38
2019-04-14T01:30:13.355Z,67.80
2019-04-14T01:32:41.543Z,67.91
2019-04-14T01:35:09.633Z,66.95
2019-04-14T01:37:37.615Z,67.29
2019-04-14T01:40:05.360Z,68.09
2019-04-14T01:42:33.398Z,68.57
2019-04-14T01:45:01.429Z,67.78
2019-04-14T01:47:29.219Z,68.43
2019-04-14T01:49:57.350Z,69.16
2019-04-14T01:52:44.173Z,69.62
2019-04-14T01:55:24.475Z,70.00
2019-04-14T01:58:07.877Z,70.31
2019-04-14T02:00:55.586Z,70.60
2019-04-14T02:03:23.875Z,70.61
2019-04-14T02:05:51.814Z,70.87
2019-04-14T02:08:19.849Z,71.32
2019-04-14T02:10:47.939Z,71.63
2019-04-14T02:13:15.770Z,71.45
2019-04-14T02:15:44.272Z,71.92
2019-04-14T02:18:12.180Z,71.86
2019-04-14T02:20:40.359Z,72.32
2019-04-14T02:23:08.335Z,72.85
2019-04-14T02:25:36.298Z,73.24
2019-04-14T02:28:04.780Z,73.45
2019-04-14T02:30:38.907Z,73.98
2019-04-14T02:33:31.914Z,73.96
2019-04-14T02:43:31.041Z,74.19
2019-04-14T02:48:36.217Z,74.12
2019-04-14T02:50:56.109Z,73.97
2019-04-14T02:53:30.708Z,73.99
2019-04-14T02:56:00.772Z,73.77
2019-04-14T02:58:29.092Z,73.78
2019-04-14T03:01:03.980Z,73.82
2019-04-14T03:03:24.187Z,73.72
2019-04-14T03:05:51.300Z,73.61
2019-04-14T03:10:51.858Z,74.17
2019-04-14T03:15:48.264Z,74.90
2019-04-14T03:18:32.168Z,74.67
2019-04-14T03:21:09.242Z,74.68
2019-04-14T03:23:46.378Z,74.34
2019-04-14T03:26:11.795Z,74.34
2019-04-14T03:28:46.045Z,74.33
2019-04-14T03:31:52.464Z,74.11
2019-04-14T03:36:44.671Z,74.47
2019-04-14T03:38:50.253Z,74.49
2019-04-14T03:41:17.233Z,74.75
2019-04-14T03:43:36.802Z,75.31
2019-04-14T03:48:52.325Z,75.29
2019-04-14T03:51:17.419Z,75.02
2019-04-14T03:53:34.692Z,75.27
2019-04-14T03:55:49.133Z,76.13
2019-04-14T03:58:13.512Z,76.62
2019-04-14T04:00:42.158Z,76.92
2019-04-14T04:03:10.641Z,77.15
2019-04-14T04:05:39.131Z,77.69
2019-04-14T04:08:07.181Z,77.78
2019-04-14T04:10:37.837Z,77.69
2019-04-14T04:13:06.270Z,77.96
2019-04-14T04:15:34.308Z,77.29
2019-04-14T04:18:09.157Z,78.10
2019-04-14T04:20:56.660Z,78.11
2019-04-14T04:23:35.642Z,77.69
2019-04-14T04:26:09.025Z,78.91
2019-04-14T04:28:56.707Z,80.22
2019-04-14T04:31:28.732Z,80.12
2019-04-14T04:34:03.307Z,79.82
2019-04-14T04:36:37.747Z,79.94
2019-04-14T04:39:12.873Z,80.68
2019-04-14T04:41:40.759Z,80.97
2019-04-14T04:44:09.409Z,81.22
2019-04-14T04:46:37.363Z,81.74
2019-04-14T04:49:13.943Z,82.00
2019-04-14T04:51:35.619Z,81.77
2019-04-14T04:54:03.852Z,81.44
2019-04-14T04:56:31.885Z,81.34
2019-04-14T04:58:59.603Z,81.26
2019-04-14T05:01:27.441Z,80.64
2019-04-14T05:03:55.710Z,81.51
2019-04-14T05:06:24.746Z,81.87
2019-04-14T05:08:54.473Z,81.98
2019-04-14T05:11:29.431Z,81.81
2019-04-14T05:13:58.615Z,81.45
2019-04-14T05:16:26.255Z,82.49
2019-04-14T05:18:55.126Z,83.07
2019-04-14T05:21:23.522Z,83.03
2019-04-14T05:23:51.684Z,83.04
2019-04-14T05:26:19.895Z,82.37
2019-04-14T05:28:48.454Z,82.48
2019-04-14T05:31:16.451Z,82.73
2019-04-14T05:33:44.746Z,82.98
2019-04-14T05:36:12.837Z,83.23
2019-04-14T05:38:40.876Z,82.40
2019-04-14T05:41:09.115Z,82.71
2019-04-14T05:43:45.418Z,84.46
2019-04-14T05:46:07.637Z,84.18
2019-04-14T05:48:35.796Z,84.24
2019-04-14T05:51:04.182Z,84.70
2019-04-14T05:53:32.656Z,85.36
2019-04-14T05:56:01.464Z,84.84
2019-04-14T05:58:29.698Z,84.13
2019-04-14T06:00:57.984Z,84.12
2019-04-14T06:03:25.790Z,83.50
2019-04-14T06:05:53.675Z,84.06
2019-04-14T06:08:21.341Z,82.74
2019-04-14T06:10:49.072Z,82.61
2019-04-14T06:13:16.715Z,83.37
2019-04-14T06:15:44.360Z,83.35
2019-04-14T06:18:12.009Z,82.49
2019-04-14T06:20:39.663Z,82.05
2019-04-14T06:23:07.313Z,82.27
2019-04-14T06:25:36.379Z,82.06
2019-04-14T06:28:04.323Z,81.67
2019-04-14T06:30:43.048Z,82.59
2019-04-14T06:33:17.782Z,82.71
2019-04-14T06:35:55.118Z,83.65
2019-04-14T06:38:25.938Z,82.23
2019-04-14T06:40:58.823Z,82.42
2019-04-14T06:43:26.462Z,81.62
2019-04-14T06:45:54.100Z,82.04
2019-04-14T06:48:21.753Z,82.29
2019-04-14T06:50:49.399Z,83.84
2019-04-14T06:53:17.055Z,82.95
2019-04-14T06:55:44.778Z,83.91
2019-04-14T06:58:12.422Z,83.01
2019-04-14T07:00:40.137Z,82.53
2019-04-14T07:03:07.776Z,82.71
2019-04-14T07:05:35.406Z,83.36
2019-04-14T07:08:03.057Z,83.41
2019-04-14T07:10:30.700Z,83.99
2019-04-14T07:12:58.620Z,84.08
2019-04-14T07:15:26.339Z,84.37
2019-04-14T07:17:55.783Z,84.79
2019-04-14T07:20:23.573Z,85.60
2019-04-14T07:22:51.326Z,84.70
2019-04-14T07:25:18.969Z,84.31
2019-04-14T07:27:46.614Z,84.01
2019-04-14T07:30:38.314Z,83.92
2019-04-14T07:33:14.854Z,83.80
2019-04-14T07:35:55.115Z,84.77
2019-04-14T07:38:27.703Z,83.59
2019-04-14T07:41:04.092Z,84.51
2019-04-14T07:43:41.558Z,84.00
2019-04-14T07:46:13.742Z,83.22
2019-04-14T07:48:47.296Z,83.98
2019-04-14T07:51:20.155Z,84.70
2019-04-14T07:53:55.971Z,86.03
2019-04-14T07:56:43.702Z,85.57
2019-04-14T07:59:19.470Z,84.16
2019-04-14T08:01:53.270Z,84.64
2019-04-14T08:04:25.320Z,83.73
2019-04-14T08:06:55.450Z,84.99
2019-04-14T08:09:23.087Z,84.05
2019-04-14T08:11:50.748Z,85.02
2019-04-14T08:14:18.396Z,84.25
2019-04-14T08:16:46.072Z,84.54
2019-04-14T08:19:13.725Z,84.36
2019-04-14T08:21:41.655Z,84.10
2019-04-14T08:24:09.331Z,84.07
2019-04-14T08:26:37.015Z,83.69
2019-04-14T08:29:04.689Z,83.45
2019-04-14T08:31:32.451Z,85.42
2019-04-14T08:34:00.115Z,85.77
2019-04-14T08:36:27.781Z,85.90
2019-04-14T08:38:55.428Z,86.64
2019-04-14T08:41:23.109Z,84.98
2019-04-14T08:43:58.751Z,86.30
2019-04-14T08:46:36.760Z,84.21
2019-04-14T08:49:12.874Z,85.60
2019-04-14T08:51:50.033Z,83.94
2019-04-14T08:54:26.298Z,84.25
2019-04-14T08:57:04.107Z,85.24
2019-04-14T08:59:44.711Z,84.75
2019-04-14T09:02:31.407Z,85.39
2019-04-14T09:05:18.912Z,85.34
2019-04-14T09:07:50.147Z,85.39
2019-04-14T09:10:23.651Z,84.91
2019-04-14T09:12:52.947Z,84.97
2019-04-14T09:15:20.596Z,86.08
2019-04-14T09:17:48.263Z,84.78
2019-04-14T09:20:15.929Z,86.12
2019-04-14T09:22:43.583Z,85.39
2019-04-14T09:25:11.243Z,85.59
2019-04-14T09:27:38.903Z,85.48
2019-04-14T09:30:06.580Z,85.98
2019-04-14T09:32:34.314Z,85.96
2019-04-14T09:35:01.970Z,86.09
2019-04-14T09:37:29.611Z,86.29
2019-04-14T09:39:57.264Z,86.43
2019-04-14T09:42:24.935Z,86.23
2019-04-14T09:44:52.669Z,86.16
2019-04-14T09:47:20.311Z,86.04
2019-04-14T09:49:47.964Z,86.36
2019-04-14T09:52:15.625Z,85.09
2019-04-14T09:54:43.301Z,84.73
2019-04-14T09:57:10.947Z,84.73
2019-04-14T09:59:38.595Z,85.78
2019-04-14T10:02:06.239Z,86.54
2019-04-14T10:04:33.987Z,86.09
2019-04-14T10:07:01.710Z,86.89
2019-04-14T10:09:29.598Z,86.16
2019-04-14T10:11:57.324Z,87.26
2019-04-14T10:14:25.048Z,87.91
2019-04-14T10:16:52.700Z,88.05
2019-04-14T10:19:20.358Z,87.77
2019-04-14T10:21:48.027Z,87.39
2019-04-14T10:24:15.673Z,87.97
2019-04-14T10:26:43.319Z,88.20
2019-04-14T10:29:10.984Z,87.90
2019-04-14T10:31:38.627Z,88.27
2019-04-14T10:34:06.282Z,88.39
2019-04-14T10:36:33.931Z,88.85
2019-04-14T10:39:01.589Z,88.44
2019-04-14T10:41:29.243Z,88.53
2019-04-14T10:43:56.898Z,88.91
2019-04-14T10:46:24.561Z,89.67
2019-04-14T10:48:52.226Z,89.50
2019-04-14T10:51:29.345Z,88.87
2019-04-14T10:53:49.262Z,89.20
2019-04-14T10:56:16.952Z,89.57
2019-04-14T10:58:44.607Z,89.09
2019-04-14T11:01:12.260Z,89.63
2019-04-14T11:03:39.931Z,88.78
2019-04-14T11:06:14.344Z,88.80
2019-04-14T11:08:41.995Z,88.90
2019-04-14T11:11:09.643Z,89.01
2019-04-14T11:13:37.303Z,88.85
2019-04-14T11:16:05.079Z,88.81
2019-04-14T11:18:32.742Z,89.14
2019-04-14T11:21:00.470Z,88.77
2019-04-14T11:23:28.175Z,88.84
2019-04-14T11:25:55.837Z,88.68
2019-04-14T11:28:23.562Z,87.30
2019-04-14T11:30:51.407Z,87.37
2019-04-14T11:33:24.242Z,88.03
2019-04-14T11:35:57.728Z,87.11
2019-04-14T11:38:32.418Z,86.90
2019-04-14T11:41:02.079Z,86.61
2019-04-14T11:43:29.780Z,88.02
2019-04-14T11:45:57.609Z,88.04
2019-04-14T11:48:25.347Z,88.04
2019-04-14T11:50:53.008Z,87.97
2019-04-14T11:53:20.709Z,87.89
2019-04-14T11:55:48.384Z,86.67
2019-04-14T11:58:16.051Z,85.06
2019-04-14T12:00:48.880Z,84.11
2019-04-14T12:03:28.608Z,83.44
2019-04-14T12:06:01.509Z,82.76
2019-04-14T12:08:37.035Z,82.47
2019-04-14T12:11:04.708Z,84.16
2019-04-14T12:13:32.383Z,84.54
2019-04-14T12:16:00.049Z,85.90
2019-04-14T12:18:27.695Z,85.47
2019-04-14T12:20:55.360Z,85.33
2019-04-14T12:23:23.011Z,84.77
2019-04-14T12:25:50.680Z,84.21
2019-04-14T12:28:19.379Z,83.93
2019-04-14T12:30:47.175Z,84.32
2019-04-14T12:33:14.838Z,83.46
2019-04-14T12:35:42.499Z,84.00
2019-04-14T12:38:10.438Z,83.86
2019-04-14T12:40:38.816Z,83.89
2019-04-14T12:43:21.836Z,83.20
2019-04-14T12:46:06.345Z,84.03
2019-04-14T12:48:43.792Z,83.24
2019-04-14T12:51:20.548Z,82.43
2019-04-14T12:53:48.096Z,83.10
2019-04-14T12:56:18.435Z,81.83
2019-04-14T12:58:56.712Z,81.75
2019-04-14T13:01:25.143Z,81.79
2019-04-14T13:03:52.797Z,81.03
2019-04-14T13:06:20.451Z,80.17
2019-04-14T13:08:48.103Z,80.07
2019-04-14T13:11:15.768Z,81.46
2019-04-14T13:13:43.444Z,81.97
2019-04-14T13:16:11.131Z,82.05
2019-04-14T13:18:38.779Z,82.43
2019-04-14T13:21:06.433Z,82.26
2019-04-14T13:23:34.127Z,81.48
2019-04-14T13:26:01.861Z,81.19
2019-04-14T13:28:29.519Z,80.32
2019-04-14T13:30:57.174Z,80.55
2019-04-14T13:33:24.870Z,81.51
2019-04-14T13:35:52.607Z,80.93
2019-04-14T13:38:20.415Z,78.82
2019-04-14T13:40:48.066Z,78.85
2019-04-14T13:43:15.736Z,78.44
2019-04-14T13:45:43.396Z,77.35
2019-04-14T13:48:11.048Z,77.10
2019-04-14T13:50:38.699Z,76.90
2019-04-14T13:53:06.363Z,76.84
2019-04-14T13:55:34.419Z,76.62
2019-04-14T13:58:02.079Z,76.37
2019-04-14T14:00:29.732Z,75.58
2019-04-14T14:02:57.395Z,76.33
2019-04-14T14:05:25.057Z,75.64
2019-04-14T14:07:52.718Z,76.61
2019-04-14T14:10:20.370Z,76.19
2019-04-14T14:12:57.703Z,77.11
2019-04-14T14:15:40.206Z,77.69
2019-04-14T14:18:21.501Z,77.30
2019-04-14T14:20:58.369Z,76.53
2019-04-14T14:23:32.138Z,76.15
2019-04-14T14:26:03.047Z,76.83
2019-04-14T14:28:30.711Z,76.10
2019-04-14T14:30:58.377Z,75.83
2019-04-14T14:33:26.633Z,75.18
2019-04-14T14:35:54.347Z,73.69
2019-04-14T14:38:22.067Z,74.18
2019-04-14T14:40:49.743Z,73.51
2019-04-14T14:43:17.451Z,74.19
2019-04-14T14:45:56.498Z,74.11
2019-04-14T14:48:28.339Z,72.01
2019-04-14T14:51:02.799Z,73.33
2019-04-14T14:53:30.520Z,73.20
2019-04-14T14:55:58.210Z,74.62
2019-04-14T14:58:25.924Z,74.83
2019-04-14T15:00:53.579Z,74.86
2019-04-14T15:03:21.249Z,75.17
2019-04-14T15:05:48.903Z,74.91
2019-04-14T15:08:16.563Z,74.32
2019-04-14T15:10:44.322Z,75.58
2019-04-14T15:13:12.044Z,74.96
2019-04-14T15:15:39.726Z,75.22
2019-04-14T15:18:07.393Z,74.89
2019-04-14T15:20:35.048Z,74.78
2019-04-14T15:23:02.722Z,74.59
2019-04-14T15:25:30.379Z,74.47
2019-04-14T15:27:58.383Z,73.99
2019-04-14T15:30:26.098Z,74.21
2019-04-14T15:32:53.768Z,74.02
2019-04-14T15:35:21.431Z,74.50
2019-04-14T15:37:49.092Z,75.01
2019-04-14T15:40:16.756Z,74.70
2019-04-14T15:42:44.416Z,75.09
2019-04-14T15:45:13.992Z,74.57
2019-04-14T15:47:41.476Z,74.58
2019-04-14T15:50:09.136Z,74.77
2019-04-14T15:52:37.179Z,74.68
2019-04-14T15:55:04.859Z,74.81
2019-04-14T15:57:51.640Z,75.69
2019-04-14T16:00:41.208Z,75.01
2019-04-14T16:03:14.027Z,74.56
2019-04-14T16:05:50.311Z,74.84
2019-04-14T16:08:25.163Z,74.53
2019-04-14T16:10:57.029Z,74.07
2019-04-14T16:13:31.959Z,74.43
2019-04-14T16:16:09.759Z,74.77
2019-04-14T16:18:45.097Z,76.17
2019-04-14T16:21:12.769Z,75.69
2019-04-14T16:23:50.027Z,76.82
2019-04-14T16:26:29.779Z,77.12
2019-04-14T16:29:02.735Z,77.88
2019-04-14T16:31:44.680Z,77.85
2019-04-14T16:34:16.644Z,77.53
2019-04-14T16:36:45.129Z,77.53
2019-04-14T16:39:12.895Z,78.03
2019-04-14T16:41:40.551Z,77.59
2019-04-14T16:44:08.221Z,77.60
2019-04-14T16:46:35.965Z,77.98
2019-04-14T16:49:04.016Z,78.79
2019-04-14T16:51:37.109Z,78.75
2019-04-14T16:54:13.160Z,78.49
2019-04-14T16:56:54.224Z,77.51
2019-04-14T16:59:21.871Z,77.25
2019-04-14T17:01:50.323Z,77.62
2019-04-14T17:04:18.006Z,78.23
2019-04-14T17:06:45.680Z,78.63
2019-04-14T17:09:13.335Z,78.33
2019-04-14T17:11:41.000Z,77.84
2019-04-14T17:14:14.341Z,78.21
2019-04-14T17:16:54.073Z,78.42
2019-04-14T17:19:26.895Z,78.06
2019-04-14T17:22:04.745Z,78.04
2019-04-14T17:24:37.580Z,78.57
2019-04-14T17:27:24.289Z,78.87
2019-04-14T17:30:00.963Z,79.18
2019-04-14T17:32:35.485Z,79.79
2019-04-14T17:35:12.065Z,79.21
2019-04-14T17:38:00.768Z,78.90
2019-04-14T17:40:39.519Z,78.15
2019-04-14T17:43:11.390Z,78.80
2019-04-14T17:45:43.989Z,79.23
2019-04-14T17:48:21.065Z,79.49
2019-04-14T17:50:58.119Z,80.30
2019-04-14T17:53:44.815Z,80.42
2019-04-14T17:56:19.072Z,80.91
2019-04-14T17:58:52.088Z,80.97
2019-04-14T18:01:26.256Z,80.29
2019-04-14T18:03:58.972Z,80.95
2019-04-14T18:06:47.583Z,80.88
2019-04-14T18:09:37.123Z,81.46
2019-04-14T18:12:09.984Z,82.18
2019-04-14T18:14:42.443Z,82.35
2019-04-14T18:17:20.342Z,82.64
2019-04-14T18:19:53.027Z,82.71
2019-04-14T18:22:20.692Z,82.26
2019-04-14T18:24:48.347Z,82.41
2019-04-14T18:27:16.018Z,82.43
2019-04-14T18:29:55.934Z,82.64
2019-04-14T18:32:34.971Z,82.97
2019-04-14T18:35:07.479Z,83.38
2019-04-14T18:37:43.418Z,83.92
2019-04-14T18:40:22.861Z,84.41
2019-04-14T18:43:07.179Z,85.09
2019-04-14T18:45:38.463Z,86.06
2019-04-14T18:48:25.956Z,85.87
2019-04-14T18:51:08.290Z,85.54
2019-04-14T18:53:45.994Z,86.20
2019-04-14T18:56:24.204Z,85.88
2019-04-14T18:59:02.823Z,85.91
2019-04-14T19:01:33.879Z,86.35
2019-04-14T19:04:02.398Z,86.24
2019-04-14T19:06:30.228Z,85.97
2019-04-14T19:08:57.880Z,85.97
2019-04-14T19:11:45.496Z,86.29
2019-04-14T19:14:17.288Z,86.69
2019-04-14T19:16:48.507Z,86.90
2019-04-14T19:19:17.408Z,86.79
2019-04-14T19:21:45.060Z,86.73
2019-04-14T19:24:12.722Z,87.18
2019-04-14T19:26:40.368Z,87.50
2019-04-14T19:29:08.025Z,87.68
2019-04-14T19:31:35.675Z,87.73
2019-04-14T19:34:03.333Z,87.50
2019-04-14T19:36:31.015Z,87.49
2019-04-14T19:38:58.672Z,87.30
2019-04-14T19:41:26.337Z,87.20
2019-04-14T19:43:54.064Z,86.97
2019-04-14T19:46:21.727Z,87.20
2019-04-14T19:48:49.464Z,87.42
2019-04-14T19:51:17.112Z,87.43
2019-04-14T19:53:44.766Z,87.38
2019-04-14T19:56:12.416Z,88.49
2019-04-14T19:58:40.067Z,88.92
2019-04-14T20:01:07.737Z,88.56
2019-04-14T20:03:35.401Z,87.84
2019-04-14T20:06:03.048Z,87.46
2019-04-14T20:08:30.708Z,87.37
2019-04-14T20:10:58.393Z,87.35
2019-04-14T20:13:27.787Z,87.32
2019-04-14T20:16:04.456Z,87.05
2019-04-14T20:18:40.619Z,86.79
2019-04-14T20:21:30.928Z,86.86
2019-04-14T20:24:03.781Z,87.30
2019-04-14T20:26:36.806Z,87.89
2019-04-14T20:29:11.139Z,88.44
2019-04-14T20:31:45.143Z,88.97
2019-04-14T20:34:12.807Z,88.70
2019-04-14T20:36:40.464Z,88.51
2019-04-14T20:39:09.735Z,88.07
2019-04-14T20:41:37.399Z,87.93
2019-04-14T20:44:05.065Z,87.85
2019-04-14T21:01:10.775Z,88.42
2019-04-14T21:03:43.578Z,88.65
2019-04-14T21:06:17.199Z,89.32
2019-04-14T21:08:56.743Z,89.05
2019-04-14T21:11:27.823Z,88.39
2019-04-14T21:14:02.787Z,88.04
2019-04-14T21:16:35.492Z,87.75
2019-04-14T21:19:10.780Z,87.76
2019-04-14T21:21:43.601Z,87.68
2019-04-14T21:24:16.603Z,87.37
2019-04-14T21:26:51.350Z,87.00
2019-04-14T21:29:41.134Z,86.58
2019-04-14T21:32:15.783Z,86.86
2019-04-14T21:34:51.235Z,86.55
2019-04-14T21:37:26.364Z,85.65
2019-04-14T21:40:01.603Z,85.93
2019-04-14T21:42:29.267Z,86.05
2019-04-14T21:44:56.919Z,86.18
2019-04-14T21:47:24.574Z,86.09
2019-04-14T21:49:52.357Z,86.22
2019-04-14T21:52:29.714Z,86.89
2019-04-14T21:54:57.371Z,86.70
2019-04-14T21:57:47.133Z,86.82
2019-04-14T22:00:38.875Z,86.98
2019-04-14T22:03:11.945Z,87.11
2019-04-14T22:05:46.183Z,87.15
2019-04-14T22:08:17.891Z,87.20
2019-04-14T22:10:49.446Z,87.33
2019-04-14T22:13:17.296Z,87.58
2019-04-14T22:15:45.008Z,87.52
2019-04-14T22:18:12.671Z,87.56
2019-04-14T22:20:40.321Z,87.66
2019-04-14T22:23:11.860Z,87.53
2019-04-14T22:25:39.512Z,87.52
2019-04-14T22:28:07.171Z,87.30
2019-04-14T22:30:34.857Z,87.45
2019-04-14T22:33:02.507Z,87.36
2019-04-14T22:35:30.165Z,87.55
2019-04-14T22:37:57.813Z,87.57
2019-04-14T22:40:25.463Z,87.79
2019-04-14T22:42:53.128Z,87.59
2019-04-14T22:45:20.767Z,87.78
2019-04-14T22:47:48.427Z,87.88
2019-04-14T22:50:16.072Z,88.47
2019-04-14T22:52:43.753Z,88.78
2019-04-14T22:55:11.419Z,88.28
2019-04-14T22:57:39.079Z,87.85
2019-04-14T23:00:07.139Z,88.09
2019-04-14T23:02:45.117Z,87.55
2019-04-14T23:05:26.835Z,87.73
2019-04-14T23:08:01.991Z,87.49
2019-04-14T23:10:38.971Z,86.82
2019-04-14T23:13:11.558Z,86.87
2019-04-14T23:15:50.100Z,86.98
2019-04-14T23:18:27.493Z,87.20
2019-04-14T23:21:14.187Z,87.29
2019-04-14T23:23:48.815Z,87.63
2019-04-14T23:26:16.509Z,87.53
2019-04-14T23:28:44.159Z,87.54
2019-04-14T23:31:11.885Z,86.97
2019-04-14T23:33:39.539Z,86.60
2019-04-14T23:36:07.192Z,86.16
2019-04-14T23:38:34.853Z,87.06
2019-04-14T23:41:02.531Z,86.79
2019-04-14T23:43:30.179Z,86.66
2019-04-14T23:45:57.827Z,86.68
2019-04-14T23:48:25.483Z,86.51
2019-04-14T23:50:53.131Z,86.44
2019-04-14T23:53:20.783Z,86.79
2019-04-14T23:55:50.176Z,87.91
2019-04-14T23:58:17.830Z,87.98
